createdAt,value
2022-12-19T00:01:26.748Z,-1.94
2022-12-19T00:04:15.523Z,-1.86
2022-12-19T00:07:01.096Z,-1.87
2022-12-19T00:09:46.778Z,-1.87
2022-12-19T00:12:32.405Z,-1.87
2022-12-19T00:15:17.991Z,-1.94
2022-12-19T00:18:03.668Z,-1.94
2022-12-19T00:20:57.969Z,-1.84
2022-12-19T00:23:44.614Z,-1.72
2022-12-19T00:26:35.643Z,-1.73
2022-12-19T00:29:21.450Z,-1.79
2022-12-19T00:32:07.032Z,-1.84
2022-12-19T00:34:53.667Z,-1.66
2022-12-19T00:37:41.447Z,-1.67
2022-12-19T00:40:35.455Z,-1.61
2022-12-19T00:43:21.019Z,-1.51
2022-12-19T00:46:08.989Z,-1.74
2022-12-19T00:48:54.991Z,-1.68
2022-12-19T00:51:40.468Z,-1.78
2022-12-19T00:54:25.840Z,-1.78
2022-12-19T00:57:11.769Z,-1.64
2022-12-19T00:59:57.026Z,-1.50
2022-12-19T01:02:42.750Z,-1.56
2022-12-19T01:05:28.623Z,-1.42
2022-12-19T01:08:15.066Z,-1.44
2022-12-19T01:11:03.706Z,-1.46
2022-12-19T01:13:51.310Z,-1.60
2022-12-19T01:16:36.950Z,-1.46
2022-12-19T01:19:22.434Z,-1.57
2022-12-19T01:22:07.959Z,-1.50
2022-12-19T01:24:53.385Z,-1.36
2022-12-19T01:27:39.007Z,-1.48
2022-12-19T01:30:24.312Z,-1.50
2022-12-19T01:33:15.057Z,-1.39
2022-12-19T01:36:07.427Z,-1.43
2022-12-19T01:38:56.574Z,-1.33
2022-12-19T01:41:41.892Z,-1.45
2022-12-19T01:44:27.287Z,-1.49
2022-12-19T01:47:13.613Z,-1.36
2022-12-19T01:50:01.249Z,-1.41
2022-12-19T01:52:47.649Z,-1.31
2022-12-19T01:55:34.186Z,-1.37
2022-12-19T01:58:19.868Z,-1.16
2022-12-19T02:01:05.819Z,-1.16
2022-12-19T02:03:52.581Z,-1.32
2022-12-19T02:06:40.287Z,-1.23
2022-12-19T02:09:25.981Z,-1.24
2022-12-19T02:12:11.785Z,-1.09
2022-12-19T02:15:02.632Z,-1.05
2022-12-19T02:18:05.473Z,-1.10
2022-12-19T02:21:25.095Z,-1.13
2022-12-19T02:24:44.279Z,-1.08
2022-12-19T02:27:44.477Z,-1.15
2022-12-19T02:30:32.670Z,-0.94
2022-12-19T02:33:36.679Z,-0.99
2022-12-19T02:36:39.024Z,-0.99
2022-12-19T02:39:51.031Z,-0.93
2022-12-19T02:42:41.905Z,-0.85
2022-12-19T02:45:32.356Z,-0.85
2022-12-19T02:48:19.697Z,-0.87
2022-12-19T02:51:05.592Z,-0.90
2022-12-19T02:53:51.707Z,-0.81
2022-12-19T02:56:45.848Z,-0.77
2022-12-19T02:59:53.833Z,-0.84
2022-12-19T03:02:55.963Z,-0.90
2022-12-19T03:05:55.114Z,-0.80
2022-12-19T03:08:49.012Z,-0.74
2022-12-19T03:11:36.495Z,-0.77
2022-12-19T03:14:23.846Z,-0.85
2022-12-19T03:17:09.326Z,-0.77
2022-12-19T03:19:55.743Z,-0.90
2022-12-19T03:22:41.211Z,-0.73
2022-12-19T03:25:28.961Z,-0.66
2022-12-19T03:28:21.852Z,-0.62
2022-12-19T03:31:10.040Z,-0.57
2022-12-19T03:34:00.468Z,-0.49
2022-12-19T03:36:51.486Z,-0.54
2022-12-19T03:39:38.698Z,-0.55
2022-12-19T03:42:45.352Z,-0.57
2022-12-19T03:45:56.395Z,-0.55
2022-12-19T03:48:48.129Z,-0.50
2022-12-19T03:51:48.159Z,-0.54
2022-12-19T03:54:39.541Z,-0.40
2022-12-19T03:57:56.145Z,-0.25
2022-12-19T04:00:47.195Z,-0.23
2022-12-19T04:03:33.012Z,-0.29
2022-12-19T04:06:18.617Z,-0.11
2022-12-19T04:09:04.734Z,-0.09
2022-12-19T04:11:57.399Z,-0.06
2022-12-19T04:14:43.873Z,0.14
2022-12-19T04:17:55.274Z,-0.16
2022-12-19T04:20:44.954Z,-0.05
2022-12-19T04:23:46.227Z,-0.07
2022-12-19T04:26:34.713Z,-0.08
2022-12-19T04:29:20.845Z,-0.05
2022-12-19T04:32:08.184Z,-0.03
2022-12-19T04:34:53.836Z,-0.03
2022-12-19T04:37:39.786Z,-0.13
2022-12-19T04:40:25.371Z,-0.20
2022-12-19T04:43:10.694Z,-0.21
2022-12-19T04:45:57.692Z,-0.13
2022-12-19T04:48:43.288Z,-0.18
2022-12-19T04:51:28.731Z,-0.10
2022-12-19T04:54:14.044Z,-0.17
2022-12-19T04:56:59.433Z,-0.14
2022-12-19T04:59:44.917Z,-0.09
2022-12-19T05:02:30.809Z,-0.15
2022-12-19T05:05:18.850Z,-0.24
2022-12-19T05:08:04.575Z,-0.12
2022-12-19T05:10:50.013Z,-0.09
2022-12-19T05:13:36.104Z,-0.01
2022-12-19T05:16:21.922Z,-0.11
2022-12-19T05:19:08.394Z,-0.13
2022-12-19T05:21:53.980Z,-0.16
2022-12-19T05:24:39.836Z,-0.31
2022-12-19T05:27:25.331Z,-0.30
2022-12-19T05:30:11.379Z,-0.29
2022-12-19T05:32:56.626Z,-0.38
2022-12-19T05:35:42.029Z,-0.33
2022-12-19T05:38:28.177Z,-0.35
2022-12-19T05:41:16.030Z,-0.21
2022-12-19T05:44:01.464Z,-0.29
2022-12-19T05:46:47.168Z,-0.29
2022-12-19T05:49:32.780Z,-0.14
2022-12-19T05:52:18.078Z,-0.04
2022-12-19T05:55:04.054Z,-0.03
2022-12-19T05:57:49.646Z,0.03
2022-12-19T06:00:35.548Z,0.02
2022-12-19T06:03:21.305Z,0.07
2022-12-19T06:06:10.761Z,0.05
2022-12-19T06:08:58.611Z,0.12
2022-12-19T06:11:44.328Z,0.18
2022-12-19T06:14:29.830Z,0.20
2022-12-19T06:17:15.563Z,0.20
2022-12-19T06:20:01.035Z,0.12
2022-12-19T06:22:46.384Z,0.32
2022-12-19T06:25:31.819Z,0.16
2022-12-19T06:28:17.159Z,0.28
2022-12-19T06:31:05.055Z,0.34
2022-12-19T06:33:50.964Z,0.26
2022-12-19T06:36:36.796Z,0.37
2022-12-19T06:39:22.574Z,0.33
2022-12-19T06:42:24.105Z,0.37
2022-12-19T06:45:09.936Z,0.49
2022-12-19T06:47:55.983Z,0.45
2022-12-19T06:50:41.862Z,0.56
2022-12-19T06:53:27.871Z,0.56
2022-12-19T06:56:15.225Z,0.49
2022-12-19T06:59:00.891Z,0.48
2022-12-19T07:02:05.723Z,0.73
2022-12-19T07:04:56.895Z,0.70
2022-12-19T07:07:42.848Z,0.84
2022-12-19T07:10:28.235Z,0.93
2022-12-19T07:13:13.771Z,0.87
2022-12-19T07:16:02.616Z,0.82
2022-12-19T07:18:47.950Z,0.92
2022-12-19T07:21:33.824Z,0.93
2022-12-19T07:24:19.637Z,0.97
2022-12-19T07:27:05.798Z,0.94
2022-12-19T07:29:51.398Z,0.95
2022-12-19T07:32:36.771Z,1.04
2022-12-19T07:35:23.125Z,1.03
2022-12-19T07:38:08.718Z,1.04
2022-12-19T07:40:54.174Z,0.93
2022-12-19T07:43:40.026Z,1.04
2022-12-19T07:46:29.443Z,1.00
2022-12-19T07:49:19.586Z,0.87
2022-12-19T07:52:08.413Z,0.98
2022-12-19T07:54:53.921Z,1.06
2022-12-19T07:57:39.608Z,1.00
2022-12-19T08:00:25.191Z,1.10
2022-12-19T08:03:10.523Z,1.16
2022-12-19T08:06:02.409Z,1.30
2022-12-19T08:08:48.192Z,1.27
2022-12-19T08:11:34.065Z,1.19
2022-12-19T08:14:19.618Z,1.27
2022-12-19T08:17:20.438Z,1.33
2022-12-19T08:20:08.497Z,1.43
2022-12-19T08:22:54.394Z,1.25
2022-12-19T08:25:40.185Z,1.36
2022-12-19T08:28:25.351Z,1.51
2022-12-19T08:31:14.210Z,1.45
2022-12-19T08:33:59.705Z,1.53
2022-12-19T08:36:45.341Z,1.40
2022-12-19T08:39:31.035Z,1.52
2022-12-19T08:42:16.430Z,1.47
2022-12-19T08:45:02.095Z,1.61
2022-12-19T08:47:47.610Z,1.60
2022-12-19T08:50:33.733Z,1.73
2022-12-19T08:53:25.872Z,1.80
2022-12-19T08:56:20.361Z,1.81
2022-12-19T08:59:06.460Z,1.87
2022-12-19T09:01:52.147Z,1.80
2022-12-19T09:05:57.616Z,1.83
2022-12-19T09:07:43.718Z,1.79
2022-12-19T09:10:31.143Z,1.79
2022-12-19T09:13:16.814Z,1.82
2022-12-19T09:16:20.541Z,1.87
2022-12-19T09:19:05.808Z,1.88
2022-12-19T09:21:51.476Z,1.90
2022-12-19T09:24:37.037Z,1.96
2022-12-19T09:27:23.520Z,2.00
2022-12-19T09:30:09.946Z,1.97
2022-12-19T09:32:55.372Z,1.99
2022-12-19T09:35:49.467Z,2.07
2022-12-19T09:38:38.230Z,2.07
2022-12-19T09:41:32.841Z,2.23
2022-12-19T09:44:36.238Z,2.17
2022-12-19T09:47:27.427Z,2.16
2022-12-19T09:50:29.094Z,2.24
2022-12-19T09:53:23.917Z,2.35
2022-12-19T09:56:15.337Z,2.36
2022-12-19T09:59:11.495Z,2.33
2022-12-19T10:02:04.655Z,2.22
2022-12-19T10:05:02.504Z,2.37
2022-12-19T10:08:08.877Z,2.45
2022-12-19T10:12:42.331Z,2.40
2022-12-19T10:15:04.121Z,2.58
2022-12-19T10:22:40.614Z,2.70
2022-12-19T10:25:35.318Z,2.59
2022-12-19T10:28:32.921Z,2.65
2022-12-19T10:31:40.489Z,2.77
2022-12-19T10:34:39.886Z,2.74
2022-12-19T10:37:45.446Z,2.71
2022-12-19T10:40:43.574Z,2.77
2022-12-19T10:43:50.249Z,2.94
2022-12-19T10:46:47.201Z,2.90
2022-12-19T10:49:32.878Z,2.94
2022-12-19T10:53:10.949Z,2.94
2022-12-19T10:56:11.428Z,3.01
2022-12-19T10:58:58.824Z,3.04
2022-12-19T11:01:51.775Z,3.01
2022-12-19T11:04:47.477Z,3.09
2022-12-19T11:07:34.648Z,3.10
2022-12-19T11:11:38.031Z,3.14
2022-12-19T11:19:58.320Z,3.00
2022-12-19T11:28:27.123Z,3.19
2022-12-19T11:29:19.441Z,3.20
2022-12-19T11:29:33.479Z,3.17
2022-12-19T11:30:41.364Z,3.24
2022-12-19T11:33:11.895Z,3.26
2022-12-19T11:35:59.974Z,3.40
2022-12-19T11:38:53.293Z,3.46
2022-12-19T11:41:46.349Z,3.60
2022-12-19T11:44:37.466Z,3.52
2022-12-19T11:47:47.720Z,3.62
2022-12-19T11:50:49.730Z,3.50
2022-12-19T11:53:59.318Z,3.63
2022-12-19T11:56:45.219Z,3.57
2022-12-19T11:59:34.383Z,3.63
2022-12-19T12:02:48.001Z,3.61
2022-12-19T12:05:43.852Z,3.73
2022-12-19T12:11:13.057Z,3.76
2022-12-19T12:18:58.357Z,3.76
2022-12-19T12:26:25.909Z,3.81
2022-12-19T12:31:01.147Z,3.75
2022-12-19T12:31:09.794Z,3.89
2022-12-19T12:31:23.833Z,3.82
2022-12-19T12:31:46.190Z,3.88
2022-12-19T12:35:41.444Z,3.91
2022-12-19T12:39:47.844Z,3.94
2022-12-19T12:42:56.195Z,3.88
2022-12-19T12:45:44.976Z,3.84
2022-12-19T12:48:37.483Z,4.02
2022-12-19T12:51:25.852Z,4.09
2022-12-19T12:54:15.563Z,4.03
2022-12-19T12:57:02.272Z,4.07
2022-12-19T12:59:47.856Z,4.17
2022-12-19T13:02:33.416Z,4.15
2022-12-19T13:05:22.811Z,4.25
2022-12-19T13:08:48.000Z,4.22
2022-12-19T13:12:05.104Z,4.24
2022-12-19T13:14:52.212Z,4.29
2022-12-19T13:17:49.523Z,4.31
2022-12-19T13:20:47.674Z,4.28
2022-12-19T13:23:34.795Z,4.32
2022-12-19T13:26:42.237Z,4.37
2022-12-19T13:29:51.431Z,4.36
2022-12-19T13:32:39.783Z,4.49
2022-12-19T13:36:35.661Z,4.52
2022-12-19T13:39:57.352Z,4.39
2022-12-19T13:42:00.975Z,4.39
2022-12-19T13:44:49.939Z,4.51
2022-12-19T13:47:40.689Z,4.61
2022-12-19T13:50:32.983Z,4.60
2022-12-19T13:53:22.325Z,4.63
2022-12-19T13:56:17.646Z,4.67
2022-12-19T13:59:05.037Z,4.62
2022-12-19T14:01:53.198Z,4.61
2022-12-19T14:04:40.482Z,4.73
2022-12-19T14:07:36.421Z,4.73
2022-12-19T14:11:37.967Z,4.71
2022-12-19T14:14:10.329Z,4.74
2022-12-19T14:17:15.488Z,4.82
2022-12-19T14:22:01.650Z,4.81
2022-12-19T14:23:42.780Z,4.90
2022-12-19T14:28:22.352Z,4.89
2022-12-19T14:30:28.171Z,4.96
2022-12-19T14:33:45.356Z,5.06
2022-12-19T14:36:06.249Z,4.99
2022-12-19T14:39:24.219Z,4.95
2022-12-19T14:43:57.137Z,5.01
2022-12-19T14:54:06.781Z,5.04
2022-12-19T14:54:11.819Z,5.02
2022-12-19T14:54:55.200Z,4.99
2022-12-19T14:56:16.764Z,5.01
2022-12-19T14:58:53.651Z,5.05
2022-12-19T15:01:42.275Z,4.97
2022-12-19T15:04:51.502Z,5.02
2022-12-19T15:07:44.572Z,5.11
2022-12-19T15:11:07.400Z,5.09
2022-12-19T15:14:51.839Z,5.06
2022-12-19T15:16:46.574Z,5.10
2022-12-19T15:19:31.982Z,5.18
2022-12-19T15:22:18.331Z,5.08
2022-12-19T15:25:04.344Z,5.27
2022-12-19T15:27:49.844Z,5.30
2022-12-19T15:30:38.138Z,5.30
2022-12-19T15:33:23.904Z,5.23
2022-12-19T15:36:09.890Z,5.23
2022-12-19T15:38:55.574Z,5.23
2022-12-19T15:41:41.692Z,5.28
2022-12-19T15:44:39.545Z,5.35
2022-12-19T15:47:30.932Z,5.28
2022-12-19T15:50:25.956Z,5.27
2022-12-19T15:53:39.860Z,5.32
2022-12-19T15:56:32.558Z,5.23
2022-12-19T15:59:37.384Z,5.33
2022-12-19T16:02:30.065Z,5.47
2022-12-19T16:05:29.442Z,5.48
2022-12-19T16:08:17.567Z,5.55
2022-12-19T16:11:03.095Z,5.53
2022-12-19T16:13:52.393Z,5.54
2022-12-19T16:16:39.050Z,5.51
2022-12-19T16:19:27.576Z,5.53
2022-12-19T16:22:22.722Z,5.46
2022-12-19T16:25:10.469Z,5.53
2022-12-19T16:27:58.265Z,5.50
2022-12-19T16:30:44.504Z,5.53
2022-12-19T16:33:33.105Z,5.61
2022-12-19T16:36:18.689Z,5.61
2022-12-19T16:39:04.066Z,5.56
2022-12-19T16:41:49.811Z,5.63
2022-12-19T16:44:35.884Z,5.62
2022-12-19T16:47:21.348Z,5.56
2022-12-19T16:50:23.964Z,5.63
2022-12-19T16:53:09.587Z,5.58
2022-12-19T16:55:56.737Z,5.51
2022-12-19T16:58:43.381Z,5.60
2022-12-19T17:01:28.914Z,5.63
2022-12-19T17:04:16.741Z,5.73
2022-12-19T17:07:02.252Z,5.70
2022-12-19T17:09:47.777Z,5.63
2022-12-19T17:12:33.425Z,5.69
2022-12-19T17:15:19.530Z,5.77
2022-12-19T17:18:15.554Z,5.66
2022-12-19T17:21:01.146Z,5.81
2022-12-19T17:23:47.497Z,5.78
2022-12-19T17:26:33.216Z,5.89
2022-12-19T17:29:18.692Z,5.80
2022-12-19T17:32:04.194Z,5.84
2022-12-19T17:34:49.883Z,5.80
2022-12-19T17:37:35.609Z,5.77
2022-12-19T17:40:25.964Z,5.79
2022-12-19T17:43:12.348Z,5.85
2022-12-19T17:45:57.738Z,5.93
2022-12-19T17:48:45.182Z,5.82
2022-12-19T17:51:30.808Z,5.77
2022-12-19T17:54:16.395Z,5.70
2022-12-19T17:57:01.857Z,5.71
2022-12-19T17:59:47.551Z,5.68
2022-12-19T18:02:35.484Z,5.77
2022-12-19T18:05:27.839Z,5.81
2022-12-19T18:08:30.988Z,5.80
2022-12-19T18:11:20.055Z,5.89
2022-12-19T18:14:05.790Z,5.84
2022-12-19T18:16:51.796Z,5.70
2022-12-19T18:19:37.418Z,5.74
2022-12-19T18:22:23.542Z,5.72
2022-12-19T18:25:18.878Z,5.67
2022-12-19T18:28:04.090Z,5.62
2022-12-19T18:30:50.990Z,5.56
2022-12-19T18:33:39.765Z,5.69
2022-12-19T18:36:27.957Z,5.70
2022-12-19T18:39:20.753Z,5.57
2022-12-19T18:42:19.551Z,5.60
2022-12-19T18:45:05.701Z,5.62
2022-12-19T18:48:00.750Z,5.70
2022-12-19T18:50:46.216Z,5.70
2022-12-19T18:53:35.186Z,5.63
2022-12-19T18:56:21.375Z,5.62
2022-12-19T18:59:06.761Z,5.67
2022-12-19T19:01:52.332Z,5.66
2022-12-19T19:04:37.996Z,5.63
2022-12-19T19:07:23.325Z,5.55
2022-12-19T19:10:21.473Z,5.55
2022-12-19T19:13:10.436Z,5.55
2022-12-19T19:15:59.553Z,5.46
2022-12-19T19:18:48.592Z,5.55
2022-12-19T19:21:35.693Z,5.42
2022-12-19T19:24:23.233Z,5.43
2022-12-19T19:27:08.741Z,5.43
2022-12-19T19:29:54.099Z,5.42
2022-12-19T19:32:53.855Z,5.47
2022-12-19T19:35:39.780Z,5.50
2022-12-19T19:38:25.506Z,5.54
2022-12-19T19:41:11.069Z,5.54
2022-12-19T19:43:57.453Z,5.50
2022-12-19T19:46:42.996Z,5.55
2022-12-19T19:49:28.798Z,5.46
2022-12-19T19:52:14.306Z,5.57
2022-12-19T19:54:59.961Z,5.49
2022-12-19T19:57:45.489Z,5.45
2022-12-19T20:00:31.130Z,5.52
2022-12-19T20:03:22.253Z,5.65
2022-12-19T20:06:08.395Z,5.64
2022-12-19T20:08:54.444Z,5.66
2022-12-19T20:11:40.036Z,5.56
2022-12-19T20:14:26.560Z,5.59
2022-12-19T20:17:11.976Z,5.73
2022-12-19T20:19:57.439Z,5.78
2022-12-19T20:22:43.046Z,5.81
2022-12-19T20:25:28.700Z,5.76
2022-12-19T20:28:14.289Z,5.95
2022-12-19T20:31:00.574Z,5.78
2022-12-19T20:33:46.286Z,5.76
2022-12-19T20:36:33.041Z,5.81
2022-12-19T20:39:22.191Z,5.74
2022-12-19T20:42:09.459Z,5.78
2022-12-19T20:44:55.229Z,5.66
2022-12-19T20:47:40.915Z,5.61
2022-12-19T20:50:26.255Z,5.59
2022-12-19T20:53:11.555Z,5.50
2022-12-19T20:55:59.572Z,5.63
2022-12-19T20:58:46.196Z,5.69
2022-12-19T21:01:31.642Z,5.68
2022-12-19T21:04:17.565Z,5.62
2022-12-19T21:07:03.459Z,5.67
2022-12-19T21:09:50.824Z,5.72
2022-12-19T21:12:36.077Z,5.66
2022-12-19T21:15:21.527Z,5.58
2022-12-19T21:18:07.275Z,5.54
2022-12-19T21:20:52.989Z,5.61
2022-12-19T21:23:38.400Z,5.78
2022-12-19T21:26:25.504Z,5.74
2022-12-19T21:29:11.304Z,5.71
2022-12-19T21:31:57.084Z,5.45
2022-12-19T21:34:42.556Z,5.71
2022-12-19T21:37:28.116Z,5.64
2022-12-19T21:40:13.990Z,5.64
2022-12-19T21:42:59.414Z,5.50
2022-12-19T21:45:45.115Z,5.56
2022-12-19T21:48:35.016Z,5.67
2022-12-19T21:51:23.660Z,5.74
2022-12-19T21:54:09.452Z,5.70
2022-12-19T21:56:54.777Z,5.73
2022-12-19T21:59:40.336Z,5.67
2022-12-19T22:02:26.179Z,5.61
2022-12-19T22:05:11.893Z,5.47
2022-12-19T22:07:57.600Z,5.70
2022-12-19T22:10:44.021Z,5.57
2022-12-19T22:13:29.486Z,5.61
2022-12-19T22:16:15.590Z,5.74
2022-12-19T22:19:01.151Z,5.72
2022-12-19T22:21:47.327Z,5.70
2022-12-19T22:24:33.148Z,5.56
2022-12-19T22:27:18.544Z,5.51
2022-12-19T22:30:10.647Z,5.49
2022-12-19T22:32:56.638Z,5.59
2022-12-19T22:35:42.001Z,5.54
2022-12-19T22:38:27.413Z,5.50
2022-12-19T22:41:13.402Z,5.65
2022-12-19T22:43:59.244Z,5.56
2022-12-19T22:46:44.664Z,5.67
2022-12-19T22:49:29.912Z,5.67
2022-12-19T22:52:15.559Z,5.67
2022-12-19T22:55:01.370Z,5.69
2022-12-19T22:57:46.987Z,5.85
2022-12-19T23:00:32.571Z,5.87
2022-12-19T23:03:18.042Z,5.96
2022-12-19T23:06:03.722Z,5.85
2022-12-19T23:08:49.502Z,5.71
2022-12-19T23:11:38.247Z,5.89
2022-12-19T23:14:23.591Z,5.90
2022-12-19T23:17:09.375Z,5.90
2022-12-19T23:19:55.085Z,5.89
2022-12-19T23:22:40.523Z,5.82
2022-12-19T23:25:26.152Z,5.86
2022-12-19T23:28:11.789Z,5.79
2022-12-19T23:31:09.860Z,5.86
2022-12-19T23:33:55.815Z,5.86
2022-12-19T23:39:46.893Z,5.75
2022-12-19T23:42:32.409Z,5.82
2022-12-19T23:45:18.061Z,5.81
2022-12-19T23:48:03.764Z,5.79
2022-12-19T23:51:06.845Z,5.93
2022-12-19T23:53:53.754Z,5.89
2022-12-19T23:56:39.331Z,5.83
2022-12-19T23:59:25.053Z,5.95
